Yocum Creek, Kentucky
Current Conditions -  °F | °C
As of 11:15 AM on Thursday 27 Nov 2014 (Local Time) from KI35 Reporting Station
Overcast Overcast  
Wind Chill: 25°   Ceiling: 1200
Heat Index: 32°   Visibility: 10mi
Dew Point: 30°   Wind: 8mph
Humidity: 93%   Direction: 320°NW
Pressure: 30.23"   Gusts: 20mph
Location:  36.8509°N, 83.1611°W
Report Text: KI35 271615Z AUTO 32007G17KT 10SM OVC012 00/M01 A3023 RMK AO1
Loading
Personal Weather Stations






























Interactive Weather Map New forecast layout! Learn more

10-Day Weather Forecast

Advertisements
Track Severe Weather on mobile